createdAt,value
2023-02-18T00:00:29.928Z,7.90
2023-02-18T00:02:56.871Z,7.90
2023-02-18T00:05:23.817Z,8.00
2023-02-18T00:07:50.823Z,8.00
2023-02-18T00:10:17.877Z,7.90
2023-02-18T00:12:45.274Z,7.90
2023-02-18T00:15:12.102Z,7.90
2023-02-18T00:17:39.147Z,7.90
2023-02-18T00:20:07.228Z,7.90
2023-02-18T00:22:34.549Z,7.90
2023-02-18T00:25:01.724Z,7.80
2023-02-18T00:27:28.856Z,7.80
2023-02-18T00:29:56.090Z,7.90
2023-02-18T00:32:23.063Z,7.90
2023-02-18T00:34:49.820Z,7.90
2023-02-18T00:37:16.987Z,8.00
2023-02-18T00:39:44.313Z,8.10
2023-02-18T00:42:11.406Z,8.10
2023-02-18T00:44:38.350Z,8.20
2023-02-18T00:47:05.262Z,8.20
2023-02-18T00:49:32.407Z,8.20
2023-02-18T00:51:59.575Z,8.10
2023-02-18T00:54:26.596Z,8.20
2023-02-18T00:56:53.728Z,8.20
2023-02-18T00:59:20.627Z,8.20
2023-02-18T01:01:47.771Z,8.10
2023-02-18T01:04:14.684Z,8.00
2023-02-18T01:06:41.887Z,7.80
2023-02-18T01:09:09.159Z,7.70
2023-02-18T01:11:36.334Z,7.80
2023-02-18T01:14:03.825Z,7.70
2023-02-18T01:16:31.077Z,7.70
2023-02-18T01:18:57.930Z,7.50
2023-02-18T01:21:26.215Z,7.60
2023-02-18T01:23:53.177Z,7.60
2023-02-18T01:26:20.281Z,7.70
2023-02-18T01:28:47.338Z,7.60
2023-02-18T01:31:15.165Z,7.60
2023-02-18T01:33:42.884Z,7.70
2023-02-18T01:36:12.709Z,7.70
2023-02-18T01:38:39.746Z,7.70
2023-02-18T01:41:06.825Z,7.70
2023-02-18T01:43:34.130Z,7.70
2023-02-18T01:46:20.956Z,7.70
2023-02-18T01:49:00.537Z,7.90
2023-02-18T01:51:32.653Z,8.00
2023-02-18T01:54:08.578Z,8.00
2023-02-18T01:56:48.559Z,8.10
2023-02-18T01:59:21.636Z,8.10
2023-02-18T02:01:48.833Z,8.20
2023-02-18T02:04:15.738Z,8.20
2023-02-18T02:06:43.617Z,8.20
2023-02-18T02:09:15.096Z,8.20
2023-02-18T02:11:53.839Z,8.20
2023-02-18T02:14:46.983Z,8.10
2023-02-18T02:17:26.207Z,8.10
2023-02-18T02:20:11.907Z,8.10
2023-02-18T02:23:04.089Z,8.20
2023-02-18T02:26:03.464Z,8.30
2023-02-18T02:28:52.149Z,8.40
2023-02-18T02:31:37.846Z,8.30
2023-02-18T02:34:41.170Z,8.40
2023-02-18T02:37:18.418Z,8.40
2023-02-18T02:40:03.394Z,8.40
2023-02-18T02:42:42.165Z,8.40
2023-02-18T02:45:29.204Z,8.40
2023-02-18T02:48:38.097Z,8.40
2023-02-18T02:51:27.145Z,8.40
2023-02-18T02:54:11.626Z,8.40
2023-02-18T02:56:38.744Z,8.40
2023-02-18T02:59:14.059Z,8.40
2023-02-18T03:02:01.187Z,8.40
2023-02-18T03:04:31.068Z,8.40
2023-02-18T03:07:22.676Z,8.40
2023-02-18T03:10:11.377Z,8.40
2023-02-18T03:12:57.835Z,8.40
2023-02-18T03:15:48.152Z,8.40
2023-02-18T03:18:18.982Z,8.40
2023-02-18T03:21:15.186Z,8.30
2023-02-18T03:23:48.448Z,8.40
2023-02-18T03:26:17.513Z,8.40
2023-02-18T03:28:46.863Z,8.40
2023-02-18T03:31:18.454Z,8.30
2023-02-18T03:33:55.581Z,8.20
2023-02-18T03:36:23.491Z,8.50
2023-02-18T03:39:01.095Z,8.60
2023-02-18T03:41:28.068Z,8.50
2023-02-18T03:44:00.634Z,8.60
2023-02-18T03:46:30.082Z,8.40
2023-02-18T03:48:58.857Z,8.40
2023-02-18T03:51:26.495Z,8.40
2023-02-18T03:53:53.399Z,8.40
2023-02-18T03:56:20.879Z,8.30
2023-02-18T03:58:48.021Z,8.40
2023-02-18T04:01:15.404Z,8.40
2023-02-18T04:03:42.525Z,8.40
2023-02-18T04:06:09.866Z,8.40
2023-02-18T04:08:37.133Z,8.40
2023-02-18T04:11:05.539Z,8.40
2023-02-18T04:13:33.332Z,8.40
2023-02-18T04:16:00.276Z,8.40
2023-02-18T04:18:27.487Z,8.40
2023-02-18T04:20:54.432Z,8.40
2023-02-18T04:23:21.433Z,8.40
2023-02-18T04:25:49.130Z,8.50
2023-02-18T04:28:17.848Z,8.40
2023-02-18T04:30:47.333Z,8.40
2023-02-18T04:33:15.101Z,8.40
2023-02-18T04:35:42.243Z,8.40
2023-02-18T04:38:10.339Z,8.40
2023-02-18T04:40:37.679Z,8.40
2023-02-18T04:43:04.558Z,8.40
2023-02-18T04:45:31.404Z,8.40
2023-02-18T04:47:58.294Z,8.40
2023-02-18T04:50:25.636Z,8.50
2023-02-18T04:52:52.605Z,8.50
2023-02-18T04:55:19.574Z,8.60
2023-02-18T04:57:47.112Z,8.50
2023-02-18T05:00:19.068Z,8.50
2023-02-18T05:02:46.444Z,8.50
2023-02-18T05:05:14.704Z,8.40
2023-02-18T05:07:42.585Z,8.40
2023-02-18T05:10:11.794Z,8.50
2023-02-18T05:12:38.690Z,8.40
2023-02-18T05:15:06.038Z,8.50
2023-02-18T05:17:33.048Z,8.50
2023-02-18T05:20:00.197Z,8.50
2023-02-18T05:22:27.180Z,8.60
2023-02-18T05:24:54.309Z,8.70
2023-02-18T05:27:21.136Z,8.70
2023-02-18T05:29:48.094Z,8.70
2023-02-18T05:32:15.066Z,8.70
2023-02-18T05:34:41.970Z,8.70
2023-02-18T05:37:09.250Z,8.70
2023-02-18T05:39:36.173Z,8.70
2023-02-18T05:42:03.369Z,8.80
2023-02-18T05:44:30.487Z,8.80
2023-02-18T05:46:59.069Z,8.80
2023-02-18T05:49:27.213Z,8.70
2023-02-18T05:51:54.561Z,9.10
2023-02-18T05:54:21.790Z,8.80
2023-02-18T05:56:48.966Z,8.80
2023-02-18T05:59:15.853Z,8.80
2023-02-18T06:01:44.653Z,8.80
2023-02-18T06:04:11.753Z,8.80
2023-02-18T06:06:38.548Z,8.80
2023-02-18T06:09:06.365Z,8.80
2023-02-18T06:11:34.000Z,8.70
2023-02-18T06:14:01.256Z,8.80
2023-02-18T06:16:28.753Z,8.80
2023-02-18T06:18:55.768Z,8.80
2023-02-18T06:21:22.617Z,8.80
2023-02-18T06:23:49.423Z,8.80
2023-02-18T06:26:16.246Z,8.80
2023-02-18T06:28:43.413Z,8.80
2023-02-18T06:31:10.848Z,8.70
2023-02-18T06:33:37.915Z,8.80
2023-02-18T06:36:07.869Z,8.80
2023-02-18T06:38:36.032Z,8.70
2023-02-18T06:41:03.114Z,8.70
2023-02-18T06:43:32.387Z,8.70
2023-02-18T06:45:59.208Z,8.70
2023-02-18T06:48:26.097Z,8.80
2023-02-18T06:50:52.968Z,8.90
2023-02-18T06:53:19.873Z,9.00
2023-02-18T06:55:47.210Z,9.00
2023-02-18T06:58:14.635Z,9.10
2023-02-18T07:00:41.608Z,9.10
2023-02-18T07:03:09.060Z,9.20
2023-02-18T07:05:36.544Z,9.30
2023-02-18T07:08:03.402Z,9.20
2023-02-18T07:10:30.493Z,9.10
2023-02-18T07:12:57.557Z,9.00
2023-02-18T07:15:24.753Z,9.00
2023-02-18T07:17:52.356Z,8.90
2023-02-18T07:20:20.816Z,8.90
2023-02-18T07:22:48.345Z,8.90
2023-02-18T07:25:15.635Z,8.90
2023-02-18T07:27:42.469Z,8.90
2023-02-18T07:30:09.743Z,8.90
2023-02-18T07:32:37.076Z,8.90
2023-02-18T07:35:05.854Z,8.90
2023-02-18T07:37:33.049Z,8.90
2023-02-18T07:40:00.176Z,9.00
2023-02-18T07:42:27.436Z,9.00
2023-02-18T07:44:54.265Z,9.10
2023-02-18T07:47:21.188Z,9.10
2023-02-18T07:49:48.508Z,9.20
2023-02-18T07:52:16.469Z,9.30
2023-02-18T07:54:44.164Z,9.40
2023-02-18T07:57:11.087Z,9.40
2023-02-18T07:59:38.043Z,9.50
2023-02-18T08:02:05.645Z,9.50
2023-02-18T08:04:32.599Z,9.60
2023-02-18T08:06:59.715Z,9.60
2023-02-18T08:09:26.699Z,9.70
2023-02-18T08:11:53.538Z,9.70
2023-02-18T08:14:20.285Z,9.70
2023-02-18T08:16:47.170Z,9.70
2023-02-18T08:19:14.042Z,9.80
2023-02-18T08:21:41.158Z,9.90
2023-02-18T08:24:08.460Z,9.90
2023-02-18T08:26:35.495Z,9.90
2023-02-18T08:29:02.830Z,9.90
2023-02-18T08:31:30.988Z,10.00
2023-02-18T08:34:00.522Z,10.10
2023-02-18T08:36:28.481Z,10.20
2023-02-18T08:38:55.324Z,10.20
2023-02-18T08:41:22.719Z,10.20
2023-02-18T08:43:49.925Z,10.30
2023-02-18T08:46:31.493Z,10.30
2023-02-18T08:49:02.168Z,10.40
2023-02-18T08:51:30.130Z,10.40
2023-02-18T08:53:56.952Z,10.50
2023-02-18T08:56:23.791Z,10.50
2023-02-18T08:58:50.563Z,10.50
2023-02-18T09:01:17.731Z,10.60
2023-02-18T09:03:44.996Z,10.60
2023-02-18T09:06:11.829Z,10.70
2023-02-18T09:08:38.708Z,10.80
2023-02-18T09:11:06.192Z,10.70
2023-02-18T09:13:34.143Z,10.70
2023-02-18T09:16:04.567Z,10.60
2023-02-18T09:18:32.686Z,10.60
2023-02-18T09:21:00.661Z,10.50
2023-02-18T09:23:30.276Z,10.40
2023-02-18T09:25:57.495Z,10.50
2023-02-18T09:28:25.012Z,10.50
2023-02-18T09:30:52.648Z,10.60
2023-02-18T09:33:19.894Z,10.60
2023-02-18T09:35:47.448Z,10.60
2023-02-18T09:38:17.430Z,10.60
2023-02-18T09:40:48.550Z,10.70
2023-02-18T09:43:24.395Z,10.80
2023-02-18T09:45:52.950Z,10.80
2023-02-18T09:48:26.716Z,10.80
2023-02-18T09:50:54.279Z,10.80
2023-02-18T09:53:23.029Z,10.90
2023-02-18T09:55:53.342Z,11.00
2023-02-18T09:58:38.353Z,10.90
2023-02-18T10:01:08.493Z,11.00
2023-02-18T10:03:35.594Z,11.10
2023-02-18T10:06:12.222Z,11.10
2023-02-18T10:08:44.364Z,11.20
2023-02-18T10:11:16.753Z,11.30
2023-02-18T10:13:44.611Z,11.30
2023-02-18T10:16:17.068Z,11.30
2023-02-18T10:18:50.680Z,11.40
2023-02-18T10:21:25.166Z,11.40
2023-02-18T10:24:01.901Z,11.50
2023-02-18T10:26:31.622Z,11.30
2023-02-18T10:28:59.275Z,11.30
2023-02-18T10:31:34.703Z,11.40
2023-02-18T10:34:20.401Z,11.30
2023-02-18T10:36:54.397Z,11.30
2023-02-18T10:39:49.996Z,11.20
2023-02-18T10:42:48.004Z,11.20
2023-02-18T10:45:55.238Z,11.30
2023-02-18T10:48:37.913Z,11.40
2023-02-18T10:51:18.292Z,11.30
2023-02-18T10:53:46.960Z,11.30
2023-02-18T10:56:51.047Z,11.30
2023-02-18T10:59:23.987Z,11.30
2023-02-18T11:02:15.724Z,11.40
2023-02-18T11:04:45.445Z,11.40
2023-02-18T11:07:21.521Z,11.50
2023-02-18T11:09:57.726Z,11.60
2023-02-18T11:12:29.012Z,11.60
2023-02-18T11:15:13.763Z,11.70
2023-02-18T11:17:42.127Z,11.70
2023-02-18T11:20:54.639Z,11.80
2023-02-18T11:23:22.037Z,12.00
2023-02-18T11:26:02.658Z,12.20
2023-02-18T11:28:50.769Z,12.80
2023-02-18T11:31:26.557Z,13.20
2023-02-18T11:33:58.057Z,13.60
2023-02-18T11:36:36.104Z,13.70
2023-02-18T11:39:20.613Z,13.90
2023-02-18T11:41:59.469Z,14.20
2023-02-18T11:44:41.803Z,14.00
2023-02-18T11:47:14.831Z,13.70
2023-02-18T11:50:00.719Z,13.50
2023-02-18T11:52:34.866Z,13.20
2023-02-18T11:55:08.515Z,13.20
2023-02-18T11:57:39.926Z,13.00
2023-02-18T12:00:43.314Z,12.90
2023-02-18T12:03:39.234Z,12.90
2023-02-18T12:06:15.538Z,12.60
2023-02-18T12:08:51.452Z,12.60
2023-02-18T12:11:42.518Z,12.40
2023-02-18T12:14:17.084Z,12.30
2023-02-18T12:17:02.375Z,12.20
2023-02-18T12:20:15.999Z,12.10
2023-02-18T12:22:43.782Z,12.10
2023-02-18T12:25:26.328Z,12.00
2023-02-18T12:28:05.404Z,11.90
2023-02-18T12:30:43.958Z,11.80
2023-02-18T12:33:27.182Z,11.70
2023-02-18T12:35:59.857Z,11.70
2023-02-18T12:38:45.288Z,11.70
2023-02-18T12:41:14.803Z,11.70
2023-02-18T12:43:41.607Z,11.60
2023-02-18T12:46:11.395Z,11.70
2023-02-18T12:48:48.131Z,11.60
2023-02-18T12:51:24.082Z,11.50
2023-02-18T12:54:09.688Z,11.50
2023-02-18T12:57:02.052Z,11.50
2023-02-18T12:59:50.647Z,11.50
2023-02-18T13:02:41.794Z,11.50
2023-02-18T13:05:46.668Z,11.50
2023-02-18T13:08:54.465Z,11.50
2023-02-18T13:11:50.933Z,11.40
2023-02-18T13:14:29.709Z,11.50
2023-02-18T13:17:00.088Z,11.50
2023-02-18T13:19:33.172Z,11.50
2023-02-18T13:22:06.280Z,11.50
2023-02-18T13:24:43.472Z,11.40
2023-02-18T13:27:34.039Z,11.40
2023-02-18T13:30:09.826Z,11.40
2023-02-18T13:33:07.934Z,11.50
2023-02-18T13:35:43.916Z,11.50
2023-02-18T13:38:48.484Z,11.60
2023-02-18T13:41:16.161Z,11.60
2023-02-18T13:43:45.659Z,11.70
2023-02-18T13:46:19.937Z,11.70
2023-02-18T13:48:54.099Z,11.80
2023-02-18T13:51:29.956Z,11.90
2023-02-18T13:54:24.021Z,11.90
2023-02-18T13:56:55.069Z,11.90
2023-02-18T13:59:41.899Z,11.90
2023-02-18T14:02:21.463Z,11.80
2023-02-18T14:05:15.894Z,12.00
2023-02-18T14:08:15.141Z,12.30
2023-02-18T14:10:42.489Z,12.30
2023-02-18T14:13:39.895Z,12.20
2023-02-18T14:16:07.995Z,12.30
2023-02-18T14:18:40.576Z,12.40
2023-02-18T14:21:13.526Z,12.30
2023-02-18T14:23:53.668Z,12.30
2023-02-18T14:26:40.134Z,12.20
2023-02-18T14:29:11.017Z,12.40
2023-02-18T14:31:53.837Z,12.50
2023-02-18T14:34:23.757Z,12.40
2023-02-18T14:37:19.818Z,12.30
2023-02-18T14:40:14.688Z,12.20
2023-02-18T14:43:07.347Z,12.20
2023-02-18T14:46:01.159Z,12.20
2023-02-18T14:48:49.161Z,12.30
2023-02-18T14:51:20.156Z,12.30
2023-02-18T14:53:47.880Z,12.30
2023-02-18T14:56:18.374Z,12.10
2023-02-18T14:58:57.988Z,12.30
2023-02-18T15:01:27.496Z,12.30
2023-02-18T15:03:56.378Z,12.30
2023-02-18T15:06:30.494Z,12.10
2023-02-18T15:09:01.395Z,12.00
2023-02-18T15:11:45.021Z,12.10
2023-02-18T15:14:35.076Z,12.20
2023-02-18T15:17:02.724Z,12.20
2023-02-18T15:19:39.484Z,12.00
2023-02-18T15:22:06.546Z,11.90
2023-02-18T15:24:38.301Z,11.80
2023-02-18T15:27:22.377Z,11.80
2023-02-18T15:29:52.049Z,11.70
2023-02-18T15:32:31.323Z,11.50
2023-02-18T15:35:03.724Z,11.50
2023-02-18T15:37:31.786Z,11.50
2023-02-18T15:39:58.615Z,11.60
2023-02-18T15:42:37.405Z,11.60
2023-02-18T15:45:20.092Z,11.70
2023-02-18T15:47:50.907Z,11.80
2023-02-18T15:50:20.669Z,11.70
2023-02-18T15:52:48.577Z,11.70
2023-02-18T15:55:33.242Z,11.50
2023-02-18T15:58:04.043Z,11.30
2023-02-18T16:00:36.797Z,11.20
2023-02-18T16:03:12.601Z,11.10
2023-02-18T16:05:45.479Z,11.00
2023-02-18T16:08:22.993Z,10.90
2023-02-18T16:11:01.462Z,10.80
2023-02-18T16:13:31.444Z,10.70
2023-02-18T16:16:01.106Z,10.60
2023-02-18T16:18:36.412Z,10.50
2023-02-18T16:21:18.678Z,10.50
2023-02-18T16:24:00.315Z,10.30
2023-02-18T16:26:39.172Z,10.30
2023-02-18T16:29:20.935Z,10.20
2023-02-18T16:31:48.188Z,10.10
2023-02-18T16:34:15.037Z,10.10
2023-02-18T16:37:02.168Z,10.00
2023-02-18T16:39:32.877Z,10.00
2023-02-18T16:42:00.044Z,9.80
2023-02-18T16:44:27.027Z,9.80
2023-02-18T16:46:54.003Z,9.70
2023-02-18T16:49:21.251Z,9.70
2023-02-18T16:51:49.129Z,9.60
2023-02-18T16:54:16.445Z,9.50
2023-02-18T16:56:43.408Z,9.50
2023-02-18T16:59:10.249Z,9.40
2023-02-18T17:01:44.863Z,9.40
2023-02-18T17:04:14.767Z,9.30
2023-02-18T17:06:43.733Z,9.20
2023-02-18T17:09:20.488Z,9.20
2023-02-18T17:11:49.960Z,9.10
2023-02-18T17:14:19.058Z,9.10
2023-02-18T17:16:47.392Z,9.00
2023-02-18T17:19:15.285Z,9.00
2023-02-18T17:21:42.904Z,9.00
2023-02-18T17:24:14.623Z,9.00
2023-02-18T17:26:41.890Z,9.00
2023-02-18T17:29:08.995Z,9.00
2023-02-18T17:31:44.623Z,9.00
2023-02-18T17:34:20.703Z,9.00
2023-02-18T17:36:47.713Z,8.90
2023-02-18T17:39:20.084Z,8.80
2023-02-18T17:41:47.130Z,8.80
2023-02-18T17:44:24.721Z,8.70
2023-02-18T17:46:52.388Z,8.70
2023-02-18T17:49:19.275Z,8.80
2023-02-18T17:51:47.366Z,8.80
2023-02-18T17:54:17.840Z,8.80
2023-02-18T17:56:45.067Z,8.80
2023-02-18T17:59:12.208Z,8.80
2023-02-18T18:01:39.535Z,8.80
2023-02-18T18:04:18.245Z,8.70
2023-02-18T18:06:46.798Z,8.70
2023-02-18T18:09:14.009Z,8.70
2023-02-18T18:11:41.621Z,8.70
2023-02-18T18:14:13.108Z,8.70
2023-02-18T18:16:40.030Z,8.60
2023-02-18T18:19:06.875Z,8.60
2023-02-18T18:21:35.089Z,8.70
2023-02-18T18:24:02.230Z,8.70
2023-02-18T18:26:29.960Z,8.70
2023-02-18T18:28:56.904Z,8.70
2023-02-18T18:31:24.051Z,8.70
2023-02-18T18:33:53.424Z,8.70
2023-02-18T18:36:21.878Z,8.70
2023-02-18T18:38:49.326Z,8.70
2023-02-18T18:41:19.471Z,8.70
2023-02-18T18:43:46.716Z,8.70
2023-02-18T18:46:13.887Z,8.70
2023-02-18T18:48:41.091Z,8.70
2023-02-18T18:51:10.279Z,8.80
2023-02-18T18:53:37.474Z,8.80
2023-02-18T18:56:06.757Z,8.80
2023-02-18T18:58:33.928Z,8.80
2023-02-18T19:01:03.356Z,8.80
2023-02-18T19:03:31.490Z,8.80
2023-02-18T19:05:58.372Z,8.70
2023-02-18T19:08:25.849Z,8.80
2023-02-18T19:10:55.100Z,8.70
2023-02-18T19:13:23.654Z,8.70
2023-02-18T19:15:59.870Z,8.70
2023-02-18T19:18:27.944Z,8.70
2023-02-18T19:20:54.732Z,8.60
2023-02-18T19:23:21.593Z,8.60
2023-02-18T19:25:48.393Z,8.60
2023-02-18T19:28:15.238Z,8.60
2023-02-18T19:30:42.911Z,8.60
2023-02-18T19:33:12.708Z,8.50
2023-02-18T19:35:41.008Z,8.50
2023-02-18T19:38:12.635Z,8.60
2023-02-18T19:40:39.565Z,8.50
2023-02-18T19:43:07.681Z,8.50
2023-02-18T19:45:35.541Z,8.50
2023-02-18T19:48:02.524Z,8.60
2023-02-18T19:50:33.160Z,8.50
2023-02-18T19:53:00.567Z,8.50
2023-02-18T19:55:27.425Z,8.50
2023-02-18T19:57:54.262Z,8.50
2023-02-18T20:00:22.636Z,8.50
2023-02-18T20:02:50.536Z,8.50
2023-02-18T20:05:18.984Z,8.50
2023-02-18T20:07:46.807Z,8.50
2023-02-18T20:10:16.638Z,8.50
2023-02-18T20:12:44.068Z,8.40
2023-02-18T20:15:11.158Z,8.40
2023-02-18T20:17:39.500Z,8.40
2023-02-18T20:20:07.643Z,8.40
2023-02-18T20:22:34.902Z,8.50
2023-02-18T20:25:01.770Z,8.50
2023-02-18T20:27:28.576Z,8.50
2023-02-18T20:29:55.387Z,8.50
2023-02-18T20:32:22.211Z,8.50
2023-02-18T20:34:49.167Z,8.40
2023-02-18T20:37:16.237Z,8.40
2023-02-18T20:39:43.182Z,8.40
2023-02-18T20:42:16.382Z,8.40
2023-02-18T20:44:45.033Z,8.40
2023-02-18T20:47:13.660Z,8.40
2023-02-18T20:49:41.221Z,8.50
2023-02-18T20:52:09.110Z,8.40
2023-02-18T20:54:36.042Z,8.40
2023-02-18T20:57:03.116Z,8.40
2023-02-18T20:59:30.042Z,8.30
2023-02-18T21:01:57.180Z,8.30
2023-02-18T21:04:24.116Z,8.30
2023-02-18T21:06:51.190Z,8.30
2023-02-18T21:09:18.707Z,8.30
2023-02-18T21:11:45.986Z,8.30
2023-02-18T21:14:12.893Z,8.30
2023-02-18T21:16:39.865Z,8.30
2023-02-18T21:19:13.621Z,8.30
2023-02-18T21:21:41.125Z,8.30
2023-02-18T21:24:08.487Z,8.30
2023-02-18T21:26:35.636Z,8.20
2023-02-18T21:29:05.758Z,8.30
2023-02-18T21:31:38.457Z,8.20
2023-02-18T21:34:06.679Z,8.20
2023-02-18T21:36:34.244Z,8.20
2023-02-18T21:39:03.693Z,8.10
2023-02-18T21:41:31.058Z,8.20
2023-02-18T21:43:58.734Z,8.20
2023-02-18T21:46:28.303Z,8.20
2023-02-18T21:49:09.915Z,8.20
2023-02-18T21:51:59.123Z,8.20
2023-02-18T21:54:41.259Z,8.30
2023-02-18T21:57:17.951Z,8.20
2023-02-18T21:59:48.177Z,8.20
2023-02-18T22:02:16.509Z,8.20
2023-02-18T22:04:43.505Z,8.20
2023-02-18T22:07:10.356Z,8.20
2023-02-18T22:09:37.616Z,8.10
2023-02-18T22:12:05.466Z,8.10
2023-02-18T22:14:32.315Z,8.10
2023-02-18T22:16:59.488Z,8.00
2023-02-18T22:19:26.772Z,8.00
2023-02-18T22:21:53.669Z,8.00
2023-02-18T22:24:21.775Z,8.10
2023-02-18T22:26:49.082Z,8.10
2023-02-18T22:29:17.931Z,8.20
2023-02-18T22:31:44.882Z,8.20
2023-02-18T22:34:11.878Z,8.10
2023-02-18T22:36:39.516Z,8.10
2023-02-18T22:39:06.999Z,8.10
2023-02-18T22:41:34.827Z,8.10
2023-02-18T22:44:04.434Z,8.10
2023-02-18T22:46:33.269Z,8.10
2023-02-18T22:49:00.690Z,8.10
2023-02-18T22:51:45.879Z,8.10
2023-02-18T22:54:15.437Z,8.20
2023-02-18T22:56:43.131Z,8.10
2023-02-18T22:59:12.106Z,8.20
2023-02-18T23:01:41.136Z,8.20
2023-02-18T23:04:11.256Z,8.20
2023-02-18T23:06:39.826Z,8.10
2023-02-18T23:09:08.188Z,8.10
2023-02-18T23:11:35.431Z,8.00
2023-02-18T23:14:21.904Z,8.00
2023-02-18T23:17:14.769Z,8.00
2023-02-18T23:19:44.408Z,7.90
2023-02-18T23:22:14.785Z,7.90
2023-02-18T23:24:44.085Z,7.90
2023-02-18T23:27:14.060Z,8.00
2023-02-18T23:29:41.683Z,7.80
2023-02-18T23:32:09.367Z,7.80
2023-02-18T23:34:38.224Z,7.70
2023-02-18T23:37:05.714Z,7.60
2023-02-18T23:39:33.193Z,7.50
2023-02-18T23:42:00.080Z,7.40
2023-02-18T23:44:28.173Z,7.40
2023-02-18T23:46:55.206Z,7.40
2023-02-18T23:49:24.784Z,7.40
2023-02-18T23:51:56.590Z,7.40
2023-02-18T23:54:24.038Z,7.50
2023-02-18T23:56:50.996Z,7.60
2023-02-18T23:59:18.252Z,7.60
